Time;durP1;ratioP1;P1;durP2;ratioP2;P2;SDS_P1;SDS_P2;PMS_P1;PMS_P2;Temp;Humidity;BMP_temperature;BMP_pressure;BME280_temperature;BME280_humidity;BME280_pressure;Samples;Min_cycle;Max_cycle;Signal;HPM_P1;HPM_P2
2022/12/11 00:00:04;;;;;;;87.20;26.87;;;;;;;-2.31;100.00;98972.97;4193898;28;20415;-68
2022/12/11 00:02:30;;;;;;;80.17;24.63;;;;;;;-2.33;100.00;98967.84;4210029;28;20254;-68
2022/12/11 00:04:57;;;;;;;73.57;25.03;;;;;;;-2.24;100.00;98974.25;4213180;28;20360;-71
2022/12/11 00:07:24;;;;;;;73.27;24.10;;;;;;;-2.24;100.00;98977.69;4200005;28;20331;-70
2022/12/11 00:09:50;;;;;;;77.90;25.10;;;;;;;-2.20;100.00;98976.56;4220412;28;20402;-69
2022/12/11 00:12:16;;;;;;;79.57;25.03;;;;;;;-2.14;100.00;98981.34;4198111;28;21327;-69
2022/12/11 00:14:43;;;;;;;69.47;23.83;;;;;;;-2.32;100.00;98990.34;4198261;28;20527;-68
2022/12/11 00:17:10;;;;;;;75.43;22.50;;;;;;;-2.27;100.00;98980.50;4211282;28;20392;-70
2022/12/11 00:19:36;;;;;;;72.80;23.17;;;;;;;-2.29;100.00;98986.75;4202314;28;20330;-69
2022/12/11 00:22:03;;;;;;;68.97;22.60;;;;;;;-2.29;100.00;98990.19;4207868;28;21853;-69
2022/12/11 00:24:29;;;;;;;72.40;22.80;;;;;;;-2.20;100.00;98989.59;4193951;28;20243;-70
2022/12/11 00:26:56;;;;;;;70.27;22.33;;;;;;;-2.16;100.00;98985.81;4221955;28;20310;-70
2022/12/11 00:29:22;;;;;;;79.73;23.07;;;;;;;-2.13;100.00;98985.63;4196473;28;1018293;-68
2022/12/11 00:31:49;;;;;;;71.93;23.10;;;;;;;-2.15;100.00;98981.47;4208706;28;20515;-69
2022/12/11 00:34:16;;;;;;;68.57;22.00;;;;;;;-2.25;100.00;98986.41;4194992;28;20279;-68
2022/12/11 00:36:42;;;;;;;65.10;22.27;;;;;;;-2.31;100.00;98973.81;4208698;28;25493;-70
2022/12/11 00:39:09;;;;;;;69.03;22.27;;;;;;;-2.24;100.00;98972.47;4226406;28;20317;-72
2022/12/11 00:41:36;;;;;;;73.47;22.77;;;;;;;-2.32;100.00;98974.72;4209184;28;20242;-69
2022/12/11 00:44:02;;;;;;;68.17;22.40;;;;;;;-2.44;100.00;98978.13;4216255;28;20303;-70
2022/12/11 00:46:29;;;;;;;69.67;21.80;;;;;;;-2.46;100.00;98977.38;4215779;28;22801;-70
2022/12/11 00:48:55;;;;;;;83.73;24.03;;;;;;;-2.45;100.00;98979.06;4208198;28;22329;-69
2022/12/11 00:51:22;;;;;;;79.17;24.13;;;;;;;-2.37;100.00;98972.41;4210300;28;20432;-72
2022/12/11 00:53:48;;;;;;;69.13;22.03;;;;;;;-2.33;100.00;98973.91;4227200;28;20246;-73
2022/12/11 00:56:18;;;;;;;67.57;22.50;;;;;;;-2.40;100.00;98972.63;4233592;28;22784;-73
2022/12/11 00:58:46;;;;;;;70.60;22.97;;;;;;;-2.47;100.00;98971.34;4214880;28;22036;-70
2022/12/11 01:01:19;;;;;;;67.37;22.17;;;;;;;-2.38;100.00;98975.13;4237674;28;22941;-70
2022/12/11 01:03:45;;;;;;;71.87;23.03;;;;;;;-2.40;100.00;98974.41;4205183;28;21736;-68
2022/12/11 01:06:16;;;;;;;74.13;23.80;;;;;;;-2.32;100.00;98979.94;4209246;28;20244;-69
2022/12/11 01:08:43;;;;;;;66.70;22.33;;;;;;;-2.30;100.00;98982.44;4216497;28;20388;-71
2022/12/11 01:11:13;;;;;;;65.83;21.50;;;;;;;-2.36;100.00;98991.50;4204427;28;21281;-70
2022/12/11 01:13:40;;;;;;;59.87;20.90;;;;;;;-2.46;100.00;98987.81;4230883;28;20985;-73
2022/12/11 01:16:13;;;;;;;61.60;19.73;;;;;;;-2.42;100.00;98979.69;4217057;28;20500;-70
2022/12/11 01:18:40;;;;;;;62.83;20.33;;;;;;;-2.38;100.00;98977.75;4209720;28;22794;-70
2022/12/11 01:21:09;;;;;;;64.77;20.00;;;;;;;-2.42;100.00;98968.44;4202264;28;20232;-73
2022/12/11 01:23:36;;;;;;;59.80;18.97;;;;;;;-2.50;100.00;98973.34;4216369;28;21547;-73
2022/12/11 01:26:05;;;;;;;59.60;19.27;;;;;;;-2.58;100.00;98964.22;4221962;28;20243;-71
2022/12/11 01:28:31;;;;;;;54.27;18.53;;;;;;;-2.47;100.00;98960.09;4229914;28;20246;-70
2022/12/11 01:30:58;;;;;;;56.60;17.23;;;;;;;-2.49;100.00;98960.19;4212126;28;21762;-72
2022/12/11 01:33:24;;;;;;;50.63;17.40;;;;;;;-2.53;100.00;98955.28;4218878;28;20241;-72
2022/12/11 01:35:51;;;;;;;59.00;19.20;;;;;;;-2.51;100.00;98948.22;4231638;28;22267;-72
2022/12/11 01:38:17;;;;;;;62.77;19.63;;;;;;;-2.56;100.00;98936.31;4240015;28;20235;-70
2022/12/11 01:40:47;;;;;;;53.73;19.50;;;;;;;-2.51;100.00;98929.97;4215251;28;20222;-70
2022/12/11 01:43:19;;;;;;;58.13;20.03;;;;;;;-2.43;100.00;98933.75;4210392;28;20468;-69
2022/12/11 01:45:47;;;;;;;57.13;19.73;;;;;;;-2.51;100.00;98924.78;4219216;28;20235;-71
2022/12/11 01:48:17;;;;;;;59.43;18.13;;;;;;;-2.65;100.00;98923.88;4209453;28;20255;-71
2022/12/11 01:50:48;;;;;;;54.60;19.87;;;;;;;-2.70;100.00;98918.16;4214188;28;22775;-71
2022/12/11 01:53:18;;;;;;;54.50;18.33;;;;;;;-2.62;100.00;98913.28;4220738;28;20302;-70
2022/12/11 01:55:46;;;;;;;55.30;17.70;;;;;;;-2.66;100.00;98914.41;4216441;28;20281;-71
2022/12/11 01:58:13;;;;;;;46.93;16.50;;;;;;;-2.69;100.00;98914.63;4216310;28;22658;-73
2022/12/11 02:00:40;;;;;;;50.20;17.63;;;;;;;-2.73;100.00;98912.31;4214440;28;20235;-72
2022/12/11 02:03:07;;;;;;;47.07;16.20;;;;;;;-2.62;100.00;98907.25;4219363;28;22509;-74
2022/12/11 02:05:36;;;;;;;50.67;15.97;;;;;;;-2.65;100.00;98910.03;4240483;28;20373;-71
2022/12/11 02:08:03;;;;;;;46.67;14.93;;;;;;;-2.67;100.00;98897.13;4221146;28;20352;-71
2022/12/11 02:10:44;;;;;;;50.63;16.27;;;;;;;-2.66;100.00;98901.41;4223419;28;22829;-70
2022/12/11 02:13:16;;;;;;;43.30;15.87;;;;;;;-2.63;100.00;98898.59;4225553;28;20278;-71
2022/12/11 02:15:59;;;;;;;44.73;16.27;;;;;;;-2.64;100.00;98894.31;4213427;28;20634;-71
2022/12/11 02:18:38;;;;;;;46.00;15.83;;;;;;;-2.72;100.00;98891.38;4210477;28;22297;-71
2022/12/11 02:21:25;;;;;;;51.70;16.17;;;;;;;-2.74;100.00;98888.03;4224342;28;20322;-70
2022/12/11 02:23:55;;;;;;;47.57;16.50;;;;;;;-2.76;100.00;98887.31;4225483;28;20479;-73
2022/12/11 02:26:48;;;;;;;47.07;17.43;;;;;;;-2.69;100.00;98882.53;4219450;28;25969;-71
2022/12/11 02:29:20;;;;;;;55.27;17.70;;;;;;;-2.71;100.00;98882.63;4223028;28;20240;-71
2022/12/11 02:31:52;;;;;;;48.60;17.37;;;;;;;-2.71;100.00;98890.44;4224371;28;21681;-72
2022/12/11 02:34:23;;;;;;;51.57;17.67;;;;;;;-2.69;100.00;98898.16;4214500;28;20451;-71
2022/12/11 02:36:53;;;;;;;52.67;17.80;;;;;;;-2.66;100.00;98893.59;4200234;28;20235;-70
2022/12/11 02:39:21;;;;;;;52.30;19.50;;;;;;;-2.74;100.00;98890.63;4208137;28;20642;-72
2022/12/11 02:41:49;;;;;;;56.53;18.43;;;;;;;-2.61;100.00;98891.50;4218741;28;20547;-71
2022/12/11 02:44:23;;;;;;;56.67;20.10;;;;;;;-2.67;100.00;98876.31;4211108;28;20232;-69
2022/12/11 02:46:50;;;;;;;63.43;21.30;;;;;;;-2.73;100.00;98866.28;4203238;28;22511;-72
2022/12/11 02:49:17;;;;;;;63.77;21.30;;;;;;;-2.69;100.00;98872.97;4216347;28;20239;-70
2022/12/11 02:51:44;;;;;;;65.10;21.37;;;;;;;-2.60;100.00;98874.13;4216001;28;22114;-69
2022/12/11 02:54:22;;;;;;;60.57;20.73;;;;;;;-2.56;100.00;98868.59;4216805;28;20232;-70
2022/12/11 02:56:52;;;;;;;60.67;20.27;;;;;;;-2.63;100.00;98869.94;4209633;28;20228;-71
2022/12/11 02:59:26;;;;;;;70.37;22.07;;;;;;;-2.58;100.00;98880.88;4220066;28;20236;-71
2022/12/11 03:01:53;;;;;;;67.67;19.90;;;;;;;-2.50;100.00;98877.81;4225317;28;22301;-72
2022/12/11 03:04:23;;;;;;;58.40;19.83;;;;;;;-2.76;100.00;98874.31;4211882;28;20228;-71
2022/12/11 03:06:52;;;;;;;60.23;19.60;;;;;;;-2.70;100.00;98881.69;4207707;28;20296;-71
2022/12/11 03:09:19;;;;;;;61.00;18.40;;;;;;;-2.74;100.00;98869.81;4210374;28;20255;-71
2022/12/11 03:11:46;;;;;;;55.30;18.17;;;;;;;-2.84;100.00;98873.94;4232329;28;20224;-73
2022/12/11 03:14:13;;;;;;;59.90;19.83;;;;;;;-2.84;100.00;98881.75;4223948;28;22225;-74
2022/12/11 03:16:55;;;;;;;66.00;20.00;;;;;;;-2.94;100.00;98883.28;4228416;28;20860;-72
2022/12/11 03:19:39;;;;;;;63.87;19.77;;;;;;;-2.98;100.00;98878.25;4212886;28;20261;-71
2022/12/11 03:22:15;;;;;;;71.10;21.53;;;;;;;-3.01;100.00;98883.66;4237820;28;22892;-70
2022/12/11 03:24:46;;;;;;;67.23;20.27;;;;;;;-3.02;100.00;98871.59;4223103;28;20227;-70
2022/12/11 03:27:26;;;;;;;67.13;19.60;;;;;;;-3.06;100.00;98882.31;4218033;28;20238;-71
2022/12/11 03:29:59;;;;;;;72.33;20.57;;;;;;;-3.11;100.00;98885.19;4246745;28;20688;-71
2022/12/11 03:32:30;;;;;;;71.17;20.73;;;;;;;-3.08;100.00;98891.97;4211875;28;21841;-70
2022/12/11 03:35:32;;;;;;;69.73;21.07;;;;;;;-3.06;100.00;98890.94;4222389;28;20234;-71
2022/12/11 03:38:02;;;;;;;69.90;20.37;;;;;;;-3.10;100.00;98894.66;4225467;28;20990;-73
2022/12/11 03:40:30;;;;;;;73.70;21.83;;;;;;;-3.01;100.00;98888.03;4205463;28;20234;-72
2022/12/11 03:42:57;;;;;;;77.40;21.30;;;;;;;-2.97;100.00;98884.31;4211415;28;20229;-70
2022/12/11 03:45:25;;;;;;;75.97;21.10;;;;;;;-2.94;100.00;98883.28;4206117;28;20380;-71
2022/12/11 03:47:52;;;;;;;72.00;21.40;;;;;;;-3.13;100.00;98887.06;4230689;28;20227;-71
2022/12/11 03:50:20;;;;;;;69.43;21.67;;;;;;;-3.12;100.00;98886.13;4233229;28;23269;-71
2022/12/11 03:52:48;;;;;;;63.10;21.37;;;;;;;-3.08;100.00;98892.81;4197324;28;21431;-72
2022/12/11 03:55:16;;;;;;;66.27;21.13;;;;;;;-3.06;100.00;98896.16;4209749;28;20231;-72
2022/12/11 03:57:43;;;;;;;71.87;21.37;;;;;;;-3.03;100.00;98892.50;4214399;28;20683;-74
2022/12/11 04:00:16;;;;;;;69.60;22.53;;;;;;;-2.99;100.00;98892.22;4221324;28;20228;-71
2022/12/11 04:02:43;;;;;;;65.63;20.77;;;;;;;-2.94;100.00;98884.13;4220699;28;21727;-71
2022/12/11 04:05:10;;;;;;;82.17;24.03;;;;;;;-3.11;100.00;98877.38;4213077;28;20289;-71
2022/12/11 04:07:37;;;;;;;80.47;22.90;;;;;;;-3.03;100.00;98872.53;4215917;28;20239;-72
2022/12/11 04:10:04;;;;;;;84.17;22.37;;;;;;;-3.05;100.00;98866.56;4226792;28;20235;-72
2022/12/11 04:12:31;;;;;;;77.20;23.53;;;;;;;-2.99;100.00;98857.56;4214690;28;20236;-71
2022/12/11 04:15:00;;;;;;;78.27;24.13;;;;;;;-2.92;100.00;98858.00;4235662;28;22363;-72
2022/12/11 04:26:07;;;;;;;71.87;22.87;;;;;;;-3.04;100.00;98857.84;4224873;28;20248;-70
2022/12/11 04:28:34;;;;;;;72.37;21.47;;;;;;;-3.12;100.00;98857.50;4236328;28;20284;-72
2022/12/11 04:31:01;;;;;;;82.37;24.00;;;;;;;-3.11;100.00;98856.59;4238627;28;20229;-72
2022/12/11 04:33:28;;;;;;;78.50;24.30;;;;;;;-3.14;100.00;98864.56;4213280;28;20298;-73
2022/12/11 04:35:59;;;;;;;71.10;22.07;;;;;;;-3.15;100.00;98860.31;4207667;28;20239;-73
2022/12/11 04:38:26;;;;;;;70.13;21.53;;;;;;;-3.18;100.00;98850.09;4211310;28;20232;-73
2022/12/11 04:41:00;;;;;;;67.00;21.87;;;;;;;-3.20;100.00;98851.97;4230076;28;20392;-72
2022/12/11 04:43:27;;;;;;;59.47;20.37;;;;;;;-3.18;100.00;98855.31;4200075;28;25014;-70
2022/12/11 04:46:10;;;;;;;70.00;21.33;;;;;;;-3.22;100.00;98852.03;4234909;28;20566;-71
2022/12/11 04:48:37;;;;;;;59.80;20.87;;;;;;;-3.21;100.00;98856.34;4249883;28;22000;-72
2022/12/11 04:51:04;;;;;;;60.47;20.23;;;;;;;-3.15;100.00;98859.47;4234476;28;20233;-71
2022/12/11 04:53:31;;;;;;;66.00;20.80;;;;;;;-3.16;100.00;98850.84;4214442;28;23677;-71
2022/12/11 04:55:58;;;;;;;64.87;19.73;;;;;;;-3.14;100.00;98850.72;4246486;28;20410;-72
2022/12/11 04:58:25;;;;;;;69.87;23.23;;;;;;;-3.11;100.00;98843.56;4227876;28;21817;-72
2022/12/11 05:00:52;;;;;;;66.33;22.23;;;;;;;-3.09;100.00;98839.09;4231132;28;20405;-74
2022/12/11 05:03:19;;;;;;;68.67;22.43;;;;;;;-3.04;100.00;98838.81;4210155;28;20332;-73
2022/12/11 05:05:50;;;;;;;71.67;22.83;;;;;;;-3.05;100.00;98830.16;4248131;28;20234;-70
2022/12/11 05:08:18;;;;;;;73.50;22.47;;;;;;;-2.96;100.00;98831.34;4227298;28;20233;-70
2022/12/11 05:10:54;;;;;;;69.50;22.40;;;;;;;-3.06;100.00;98828.50;4215994;28;21677;-72
2022/12/11 05:13:20;;;;;;;65.07;23.03;;;;;;;-2.99;100.00;98819.34;4219436;28;20417;-72
2022/12/11 05:15:47;;;;;;;68.97;22.07;;;;;;;-2.95;100.00;98813.94;4224562;28;20263;-72
2022/12/11 05:18:13;;;;;;;61.83;23.57;;;;;;;-3.00;100.00;98815.09;4218505;28;20276;-71
2022/12/11 05:20:40;;;;;;;65.60;22.30;;;;;;;-3.01;100.00;98800.41;4209812;28;20290;-71
2022/12/11 05:23:07;;;;;;;63.67;22.33;;;;;;;-3.12;100.00;98799.44;4214051;28;20267;-70
2022/12/11 05:25:36;;;;;;;76.40;23.20;;;;;;;-3.13;100.00;98801.19;4221190;28;21084;-72
2022/12/11 05:28:03;;;;;;;67.70;23.23;;;;;;;-3.11;100.00;98786.34;4219458;28;20298;-66
2022/12/11 05:30:29;;;;;;;68.20;22.93;;;;;;;-3.15;100.00;98787.47;4219303;28;20272;-71
2022/12/11 05:32:56;;;;;;;67.10;20.90;;;;;;;-3.07;100.00;98792.97;4220423;28;20258;-73
2022/12/11 05:35:22;;;;;;;69.40;23.33;;;;;;;-3.11;100.00;98788.94;4214061;28;22124;-72
2022/12/11 05:37:49;;;;;;;78.33;23.70;;;;;;;-3.21;100.00;98787.84;4211116;28;22009;-73
2022/12/11 05:40:15;;;;;;;70.60;23.67;;;;;;;-3.28;100.00;98795.22;4218067;28;22146;-72
2022/12/11 05:42:42;;;;;;;68.37;23.07;;;;;;;-3.32;100.00;98782.53;4217933;28;20231;-71
2022/12/11 05:45:09;;;;;;;68.23;21.60;;;;;;;-3.28;100.00;98781.38;4196413;28;21271;-71
2022/12/11 05:47:36;;;;;;;69.60;22.53;;;;;;;-3.11;100.00;98773.31;4211044;28;20502;-69
2022/12/11 05:50:02;;;;;;;66.40;22.27;;;;;;;-3.22;100.00;98768.81;4210928;28;20569;-71
2022/12/11 05:52:30;;;;;;;94.07;31.47;;;;;;;-3.14;100.00;98773.50;4205731;28;22427;-76
2022/12/11 05:54:57;;;;;;;74.93;23.13;;;;;;;-3.11;100.00;98773.31;4209377;28;20236;-66
2022/12/11 05:57:23;;;;;;;74.77;23.07;;;;;;;-3.07;100.00;98769.56;4216495;28;20294;-70
2022/12/11 05:59:50;;;;;;;69.13;22.07;;;;;;;-3.06;100.00;98768.66;4211659;28;20240;-70
2022/12/11 06:02:16;;;;;;;66.30;22.87;;;;;;;-3.04;100.00;98769.38;4216403;28;20943;-70
2022/12/11 06:04:43;;;;;;;58.47;21.87;;;;;;;-3.05;100.00;98765.09;4213101;28;20231;-69
2022/12/11 06:07:09;;;;;;;59.70;20.50;;;;;;;-3.04;100.00;98763.34;4205064;28;20712;-69
2022/12/11 06:09:36;;;;;;;68.23;21.50;;;;;;;-3.19;100.00;98759.97;4213347;28;26422;-72
2022/12/11 06:12:03;;;;;;;55.10;19.93;;;;;;;-3.25;100.00;98762.97;4204990;28;20249;-68
2022/12/11 06:14:29;;;;;;;58.77;18.67;;;;;;;-3.26;100.00;98766.50;4215268;28;20236;-69
2022/12/11 06:16:56;;;;;;;58.43;18.77;;;;;;;-3.15;100.00;98766.66;4215667;28;20608;-70
2022/12/11 06:19:22;;;;;;;53.10;18.83;;;;;;;-3.24;100.00;98769.84;4222986;28;21420;-67
2022/12/11 06:21:49;;;;;;;49.07;18.53;;;;;;;-3.28;100.00;98764.03;4218224;28;21287;-67
2022/12/11 06:24:15;;;;;;;48.93;17.10;;;;;;;-3.31;100.00;98768.56;4206917;28;21264;-69
2022/12/11 06:26:42;;;;;;;49.83;18.43;;;;;;;-3.33;100.00;98773.84;4220084;28;23133;-68
2022/12/11 06:29:08;;;;;;;54.77;19.50;;;;;;;-3.23;100.00;98777.56;4211807;28;20232;-62
2022/12/11 06:31:38;;;;;;;52.43;18.70;;;;;;;-3.27;100.00;98775.25;4215450;28;20256;-63
2022/12/11 06:34:05;;;;;;;47.30;17.43;;;;;;;-3.28;100.00;98778.78;4203252;28;20236;-64
2022/12/11 06:36:32;;;;;;;48.60;17.90;;;;;;;-3.33;100.00;98765.22;4211317;28;21898;-64
2022/12/11 06:38:59;;;;;;;46.80;17.50;;;;;;;-3.46;100.00;98773.00;4195236;28;20232;-64
2022/12/11 06:41:25;;;;;;;50.53;18.40;;;;;;;-3.49;100.00;98774.03;4216930;28;20339;-64
2022/12/11 06:43:52;;;;;;;45.07;18.43;;;;;;;-3.48;100.00;98775.69;4229157;28;21726;-61
2022/12/11 06:46:19;;;;;;;47.13;17.90;;;;;;;-3.51;100.00;98775.88;4221858;28;20565;-62
2022/12/11 06:48:46;;;;;;;46.13;16.63;;;;;;;-3.56;100.00;98772.72;4219374;28;20410;-64
2022/12/11 06:51:16;;;;;;;47.27;17.17;;;;;;;-3.51;100.00;98775.03;4222834;28;20290;-64
2022/12/11 06:53:43;;;;;;;48.17;17.43;;;;;;;-3.49;100.00;98779.22;4219287;28;21638;-64
2022/12/11 06:56:12;;;;;;;48.50;17.33;;;;;;;-3.50;100.00;98780.13;4209360;28;20390;-63
2022/12/11 06:58:39;;;;;;;42.60;16.50;;;;;;;-3.38;100.00;98782.91;4227424;28;21907;-64
2022/12/11 07:01:20;;;;;;;52.23;17.53;;;;;;;-3.43;100.00;98775.41;4213961;28;21861;-63
2022/12/11 07:03:47;;;;;;;45.17;17.90;;;;;;;-3.45;100.00;98778.06;4219593;28;20228;-63
2022/12/11 07:06:14;;;;;;;45.30;16.67;;;;;;;-3.44;100.00;98774.56;4224229;28;20451;-62
2022/12/11 07:08:40;;;;;;;44.13;16.97;;;;;;;-3.48;100.00;98773.09;4214386;28;20978;-65
2022/12/11 07:11:13;;;;;;;45.30;16.73;;;;;;;-3.51;100.00;98770.69;4208109;28;20418;-65
2022/12/11 07:13:40;;;;;;;44.13;16.23;;;;;;;-3.35;100.00;98775.72;4218907;28;20565;-64
2022/12/11 07:16:11;;;;;;;44.70;17.63;;;;;;;-3.45;100.00;98775.47;4232001;28;22784;-65
2022/12/11 07:18:40;;;;;;;48.20;18.60;;;;;;;-3.53;100.00;98780.34;4243704;28;20256;-64
2022/12/11 07:21:07;;;;;;;50.27;18.93;;;;;;;-3.55;100.00;98771.81;4217058;28;22526;-68
2022/12/11 07:23:35;;;;;;;46.13;17.20;;;;;;;-3.50;100.00;98766.31;4229245;28;20231;-64
2022/12/11 07:26:05;;;;;;;46.13;16.70;;;;;;;-3.53;100.00;98756.94;4225073;28;20248;-66
2022/12/11 07:28:33;;;;;;;47.57;17.73;;;;;;;-3.57;100.00;98759.84;4237113;28;20410;-67
2022/12/11 07:31:08;;;;;;;46.17;16.87;;;;;;;-3.49;100.00;98763.63;4231260;28;20230;-63
2022/12/11 07:33:35;;;;;;;43.83;16.07;;;;;;;-3.42;100.00;98749.31;4253675;28;20251;-64
2022/12/11 07:36:04;;;;;;;39.63;15.73;;;;;;;-3.48;100.00;98749.69;4222151;28;21504;-66
2022/12/11 07:38:31;;;;;;;43.43;16.07;;;;;;;-3.37;100.00;98745.53;4230655;28;20704;-65
2022/12/11 07:41:02;;;;;;;38.53;13.97;;;;;;;-3.41;100.00;98744.94;4237905;28;20235;-67
2022/12/11 07:43:28;;;;;;;39.73;15.13;;;;;;;-3.40;100.00;98739.59;4211354;28;20236;-64
2022/12/11 07:46:00;;;;;;;39.03;15.27;;;;;;;-3.50;100.00;98737.72;4224779;28;20419;-63
2022/12/11 07:48:28;;;;;;;33.90;13.30;;;;;;;-3.72;100.00;98735.63;4202364;28;23156;-68
2022/12/11 07:50:55;;;;;;;31.43;12.73;;;;;;;-3.61;100.00;98738.38;4211426;28;20232;-63
2022/12/11 07:53:21;;;;;;;32.53;13.17;;;;;;;-3.67;100.00;98733.59;4213165;28;22087;-64
2022/12/11 07:55:48;;;;;;;34.27;12.63;;;;;;;-3.77;100.00;98729.91;4213020;28;20227;-67
2022/12/11 07:58:14;;;;;;;35.57;13.03;;;;;;;-3.63;100.00;98735.06;4226129;28;23069;-67
2022/12/11 08:00:43;;;;;;;36.17;12.63;;;;;;;-3.72;100.00;98730.44;4217867;28;21133;-65
2022/12/11 08:03:09;;;;;;;37.00;12.93;;;;;;;-3.79;100.00;98734.34;4211080;28;21987;-65
2022/12/11 08:05:36;;;;;;;31.13;12.70;;;;;;;-3.77;100.00;98737.69;4218040;28;20581;-66
2022/12/11 08:08:02;;;;;;;34.33;12.73;;;;;;;-3.68;100.00;98734.50;4214691;28;20239;-67
2022/12/11 08:10:29;;;;;;;36.40;12.53;;;;;;;-3.74;100.00;98738.34;4221033;28;20227;-65
2022/12/11 08:12:56;;;;;;;33.13;11.63;;;;;;;-3.73;100.00;98728.78;4207880;28;20711;-64
2022/12/11 08:15:22;;;;;;;33.57;13.43;;;;;;;-3.75;100.00;98726.25;4209492;28;20872;-64
2022/12/11 08:17:49;;;;;;;34.37;12.97;;;;;;;-3.77;100.00;98730.75;4220485;28;20224;-66
2022/12/11 08:20:15;;;;;;;31.83;12.30;;;;;;;-3.83;100.00;98729.34;4210462;28;20333;-69
2022/12/11 08:22:42;;;;;;;34.13;12.53;;;;;;;-3.83;100.00;98729.34;4207906;28;21695;-65
2022/12/11 08:25:08;;;;;;;39.80;13.07;;;;;;;-3.87;100.00;98724.44;4222827;28;21265;-66
2022/12/11 08:27:35;;;;;;;29.53;12.17;;;;;;;-3.89;100.00;98724.53;4227267;28;21262;-64
2022/12/11 08:30:02;;;;;;;31.93;12.77;;;;;;;-3.87;100.00;98719.25;4211881;28;22753;-67
2022/12/11 08:32:28;;;;;;;31.20;12.70;;;;;;;-3.85;100.00;98720.81;4201275;28;20435;-66
2022/12/11 08:34:55;;;;;;;37.20;13.10;;;;;;;-3.75;100.00;98709.84;4226621;28;20242;-68
2022/12/11 08:37:22;;;;;;;30.67;12.80;;;;;;;-3.71;100.00;98716.53;4222628;28;20406;-67
2022/12/11 08:39:49;;;;;;;35.37;13.57;;;;;;;-3.59;100.00;98715.72;4209213;28;20228;-66
2022/12/11 08:42:16;;;;;;;35.17;13.50;;;;;;;-3.51;100.00;98713.50;4224013;28;22946;-66
2022/12/11 08:44:42;;;;;;;37.13;13.90;;;;;;;-3.48;100.00;98712.47;4213804;28;20299;-64
2022/12/11 08:47:09;;;;;;;39.03;14.00;;;;;;;-3.55;100.00;98712.00;4220229;28;20310;-68
2022/12/11 08:49:36;;;;;;;38.00;14.67;;;;;;;-3.48;100.00;98700.28;4225664;28;20330;-66
2022/12/11 08:52:03;;;;;;;38.53;14.20;;;;;;;-3.50;100.00;98702.16;4212180;28;20286;-66
2022/12/11 08:54:31;;;;;;;37.90;14.67;;;;;;;-3.62;100.00;98711.56;4214030;28;20904;-64
2022/12/11 08:56:58;;;;;;;35.27;13.33;;;;;;;-3.54;100.00;98711.06;4217118;28;20225;-68
2022/12/11 08:59:24;;;;;;;38.17;14.07;;;;;;;-3.58;100.00;98699.22;4215595;28;20232;-68
2022/12/11 09:01:51;;;;;;;37.70;14.20;;;;;;;-3.59;100.00;98707.94;4224684;28;21425;-66
2022/12/11 09:04:18;;;;;;;36.27;12.07;;;;;;;-3.58;100.00;98712.22;4215827;28;21643;-69
2022/12/11 09:06:44;;;;;;;34.90;12.83;;;;;;;-3.50;100.00;98704.75;4209829;28;22072;-65
2022/12/11 09:09:11;;;;;;;35.23;11.90;;;;;;;-3.51;100.00;98699.63;4198422;28;22202;-66
2022/12/11 09:11:38;;;;;;;29.27;12.77;;;;;;;-3.66;100.00;98685.88;4232115;28;20582;-63
2022/12/11 09:14:04;;;;;;;31.57;11.67;;;;;;;-3.62;100.00;98687.34;4220184;28;20297;-65
2022/12/11 09:16:36;;;;;;;33.13;12.53;;;;;;;-3.72;100.00;98681.91;4220761;28;20237;-65
2022/12/11 09:19:05;;;;;;;34.63;12.33;;;;;;;-3.88;100.00;98682.03;4196721;28;20312;-70
2022/12/11 09:21:32;;;;;;;31.33;11.80;;;;;;;-3.84;100.00;98680.94;4201977;28;20348;-68
2022/12/11 09:24:00;;;;;;;29.40;11.33;;;;;;;-3.67;100.00;98679.84;4210207;28;21424;-68
2022/12/11 09:26:27;;;;;;;29.77;11.17;;;;;;;-3.69;100.00;98667.88;4205651;28;20245;-63
2022/12/11 09:28:54;;;;;;;27.37;11.57;;;;;;;-3.64;100.00;98652.81;4215906;28;21504;-64
2022/12/11 09:31:29;;;;;;;29.77;11.77;;;;;;;-3.54;100.00;98656.47;4214919;28;20265;-64
2022/12/11 09:33:58;;;;;;;27.07;11.10;;;;;;;-3.57;100.00;98656.69;4204407;28;21670;-68
2022/12/11 09:36:25;;;;;;;29.63;11.73;;;;;;;-3.56;100.00;98653.13;4209456;28;22245;-64
2022/12/11 09:38:52;;;;;;;28.83;11.10;;;;;;;-3.58;100.00;98647.22;4238509;28;21139;-67
2022/12/11 09:41:21;;;;;;;26.23;10.50;;;;;;;-3.63;100.00;98646.66;4198041;28;20496;-67
2022/12/11 09:44:12;;;;;;;28.10;11.37;;;;;;;-3.60;100.00;98646.50;4215625;28;20369;-66
2022/12/11 09:46:39;;;;;;;30.93;12.43;;;;;;;-3.61;100.00;98624.00;4209438;28;20284;-63
2022/12/11 09:49:24;;;;;;;28.83;10.83;;;;;;;-3.67;100.00;98625.25;4183452;28;21834;-66
2022/12/11 09:52:18;;;;;;;28.70;10.83;;;;;;;-3.69;100.00;98629.72;4239538;28;20235;-67
2022/12/11 09:54:57;;;;;;;29.00;10.70;;;;;;;-3.60;100.00;98628.28;4245360;28;23156;-65
2022/12/11 09:57:23;;;;;;;27.43;10.80;;;;;;;-3.52;100.00;98618.22;4206425;28;20232;-66
2022/12/11 09:59:57;;;;;;;28.50;11.60;;;;;;;-3.55;100.00;98623.63;4229813;28;20424;-67
2022/12/11 10:02:49;;;;;;;32.47;11.93;;;;;;;-3.59;100.00;98619.53;4243701;28;20306;-76
2022/12/11 10:05:41;;;;;;;31.57;11.80;;;;;;;-3.41;100.00;98623.53;4205580;28;21264;-66
2022/12/11 10:08:13;;;;;;;32.87;12.60;;;;;;;-3.45;100.00;98614.25;4220083;28;20250;-66
2022/12/11 10:10:50;;;;;;;42.60;15.60;;;;;;;-3.64;100.00;98611.22;4234108;28;20228;-66
2022/12/11 10:13:44;;;;;;;32.93;12.77;;;;;;;-3.64;100.00;98606.84;4212772;28;22583;-65
2022/12/11 10:16:35;;;;;;;34.07;12.40;;;;;;;-3.55;100.00;98602.00;4249362;28;21391;-64
2022/12/11 10:19:02;;;;;;;30.73;11.83;;;;;;;-3.50;100.00;98600.75;4234728;28;20446;-65
2022/12/11 10:21:36;;;;;;;30.60;12.03;;;;;;;-3.54;100.00;98596.69;4222015;28;21447;-67
2022/12/11 10:24:04;;;;;;;32.40;12.63;;;;;;;-3.47;100.00;98597.09;4206512;28;21568;-65
2022/12/11 10:26:31;;;;;;;31.97;12.30;;;;;;;-3.45;100.00;98590.88;4214861;28;20227;-65
2022/12/11 10:28:59;;;;;;;37.63;12.90;;;;;;;-3.38;100.00;98588.69;4215414;28;20236;-69
2022/12/11 10:31:51;;;;;;;28.37;11.60;;;;;;;-3.40;100.00;98580.97;4219135;28;21309;-66
2022/12/11 10:34:30;;;;;;;33.00;13.40;;;;;;;-3.54;100.00;98586.28;4242803;28;21222;-66
2022/12/11 10:36:57;;;;;;;37.10;12.63;;;;;;;-3.48;100.00;98579.84;4219041;28;20436;-68
2022/12/11 10:39:26;;;;;;;32.00;13.30;;;;;;;-3.56;100.00;98580.34;4224616;28;20602;-65
2022/12/11 10:41:54;;;;;;;30.57;13.10;;;;;;;-3.40;100.00;98580.97;4229717;28;23006;-65
2022/12/11 10:44:29;;;;;;;31.73;12.13;;;;;;;-3.41;100.00;98573.31;4230110;28;20230;-64
2022/12/11 10:47:14;;;;;;;28.57;11.53;;;;;;;-3.45;100.00;98577.88;4241059;28;20309;-66
2022/12/11 10:49:57;;;;;;;25.17;10.67;;;;;;;-3.51;100.00;98573.09;4217374;28;20252;-66
2022/12/11 10:52:30;;;;;;;29.47;11.50;;;;;;;-3.50;100.00;98566.13;4203349;28;20266;-64
2022/12/11 10:55:04;;;;;;;26.00;10.83;;;;;;;-3.61;100.00;98548.63;4219702;28;24220;-65
2022/12/11 10:57:34;;;;;;;30.27;11.27;;;;;;;-3.52;100.00;98542.81;4233710;28;20231;-64
2022/12/11 11:00:03;;;;;;;25.63;10.53;;;;;;;-3.53;100.00;98543.75;4218098;28;20292;-65
2022/12/11 11:02:35;;;;;;;31.00;11.33;;;;;;;-3.58;100.00;98534.59;4216376;28;23487;-66
2022/12/11 11:05:35;;;;;;;25.60;10.13;;;;;;;-3.48;100.00;98536.47;4235930;28;20227;-66
2022/12/11 11:08:22;;;;;;;25.03;9.87;;;;;;;-3.47;100.00;98532.94;4188250;28;23159;-66
2022/12/11 11:10:54;;;;;;;24.03;9.57;;;;;;;-3.32;100.00;98530.25;4240660;28;20251;-66
2022/12/11 11:13:29;;;;;;;24.57;11.00;;;;;;;-3.19;100.00;98529.28;4218065;28;20243;-65
2022/12/11 11:16:00;;;;;;;26.57;11.07;;;;;;;-3.30;100.00;98524.00;4216528;28;20314;-67
2022/12/11 11:18:28;;;;;;;27.40;11.57;;;;;;;-3.42;100.00;98520.47;4219930;28;21719;-67
2022/12/11 11:20:55;;;;;;;27.90;10.70;;;;;;;-3.39;100.00;98509.03;4226827;28;20263;-67
2022/12/11 11:23:23;;;;;;;26.10;11.27;;;;;;;-3.43;100.00;98513.59;4216098;28;22389;-66
2022/12/11 11:25:53;;;;;;;29.03;11.53;;;;;;;-3.49;100.00;98515.78;4205651;28;20235;-63
2022/12/11 11:28:33;;;;;;;28.80;11.57;;;;;;;-3.34;100.00;98512.16;4215750;28;20243;-65